Airfield :
LOGIN :

Register | Disclaimer

   EN    FR    IT 

 










Legend :    VFR   Marginal VFR   IFR   Intensive IFR   Very Intensive IFR
Visi :
Ceiling :
>= 8 km
>= 3000ft
5 to 8 km
1000 to 3000 ft
1500m to 5 km
500 to 1000 ft
800 to 1500m
200 to 500 ft
< 800m
< 200 ft
Symbols :   Thunderstorms  Fog  Heavy snow  Heavy precipitations  Wind > 20 kt
SIGMETs :     Misc.  Thunderstorms  Icing  Turbulence  Mountain Waves  Volcanic Ashes






- Airport Elevation : 87 ft
- IATA code : FSC


LFKF - Figari

CURRENT METAR :
  • 270800Z AUTO 28005KT 250V310 9999 FEW046/// SCT058/// BKN070/// ///TCU 11/06 Q0999 BECMG SCT030 BKN040

EXPIRED METARs :
  • 270730Z AUTO 29008KT 260V340 9999 -RADZ SCT042 BKN052 BKN062 11/07 Q0999 NOSIG
  • 270700Z AUTO 26004KT 220V300 9999 FEW045 SCT056 BKN070 11/07 Q0999 NOSIG
  • 270630Z AUTO 25009KT 9999 FEW042 BKN066 11/06 Q0999 NOSIG
  • 270600Z AUTO 26011KT 230V290 9999 FEW062/// ///TCU 11/05 Q0998 BECMG SCT030 BKN040

TAF TAF LFKF
Valid from the 27 at 09:00 until the 28 at 09:00 UTC


270800Z 2709/2809 25012KT 9999 FEW030 BKN045
TEMPO 2711/2718 22015G34KT
TEMPO 2709/2809 SHRA BKN014 SCT030CB BKN040
PROB30
TEMPO 2709/2721 4000 TSRA
BECMG 2722/2801 28012KT
TEMPO 2800/2809 28015G32KT



MET'MAP, your aeronautical weather chart ! - Copyright ORBIFLY December 2007 - Disclaimer

ORBIFLY MET'MAP TEAM :

Programming & Development : Alexandra Zaïnal
Concept & original design : Baudouin d'Aumeries
Assistance for programming : Marc-Olivier Méhu
Technical & hardware support : Manuel Goepfert

Contact : metmap@orbifly.com




SOURCES & CREDITS :

   NOAA